sensor_id;sensor_type;location;lat;lon;timestamp;P1;durP1;ratioP1;P2;durP2;ratioP2
56477;SDS011;42382;53.210;5.772;2022-11-21T00:00:51;37.20;;;19.90;;
56477;SDS011;42382;53.210;5.772;2022-11-21T00:03:18;25.48;;;15.85;;
56477;SDS011;42382;53.210;5.772;2022-11-21T00:05:45;25.30;;;14.40;;
56477;SDS011;42382;53.210;5.772;2022-11-21T00:08:14;25.35;;;15.52;;
56477;SDS011;42382;53.210;5.772;2022-11-21T00:10:41;23.92;;;13.75;;
56477;SDS011;42382;53.210;5.772;2022-11-21T00:13:11;22.20;;;14.10;;
56477;SDS011;42382;53.210;5.772;2022-11-21T00:15:38;24.25;;;15.70;;
56477;SDS011;42382;53.210;5.772;2022-11-21T00:18:04;25.50;;;15.27;;
56477;SDS011;42382;53.210;5.772;2022-11-21T00:20:30;24.33;;;15.13;;
56477;SDS011;42382;53.210;5.772;2022-11-21T00:22:55;27.75;;;15.40;;
56477;SDS011;42382;53.210;5.772;2022-11-21T00:25:21;24.20;;;15.10;;
56477;SDS011;42382;53.210;5.772;2022-11-21T00:27:47;25.88;;;15.23;;
56477;SDS011;42382;53.210;5.772;2022-11-21T00:30:12;24.63;;;15.20;;
56477;SDS011;42382;53.210;5.772;2022-11-21T00:32:38;23.45;;;14.82;;
56477;SDS011;42382;53.210;5.772;2022-11-21T00:35:04;22.15;;;14.02;;
56477;SDS011;42382;53.210;5.772;2022-11-21T00:37:31;24.05;;;15.38;;
56477;SDS011;42382;53.210;5.772;2022-11-21T00:39:57;22.90;;;15.00;;
56477;SDS011;42382;53.210;5.772;2022-11-21T00:42:23;24.88;;;15.55;;
56477;SDS011;42382;53.210;5.772;2022-11-21T00:44:49;26.52;;;16.38;;
56477;SDS011;42382;53.210;5.772;2022-11-21T00:47:15;24.90;;;15.70;;
56477;SDS011;42382;53.210;5.772;2022-11-21T00:49:40;28.95;;;17.38;;
56477;SDS011;42382;53.210;5.772;2022-11-21T00:52:06;28.45;;;16.58;;
56477;SDS011;42382;53.210;5.772;2022-11-21T00:54:31;26.75;;;16.30;;
56477;SDS011;42382;53.210;5.772;2022-11-21T00:56:57;27.58;;;16.23;;
56477;SDS011;42382;53.210;5.772;2022-11-21T00:59:23;30.80;;;17.20;;
56477;SDS011;42382;53.210;5.772;2022-11-21T01:01:48;25.98;;;15.45;;
56477;SDS011;42382;53.210;5.772;2022-11-21T01:04:14;27.70;;;16.38;;
56477;SDS011;42382;53.210;5.772;2022-11-21T01:06:39;31.33;;;17.38;;
56477;SDS011;42382;53.210;5.772;2022-11-21T01:09:05;29.00;;;16.77;;
56477;SDS011;42382;53.210;5.772;2022-11-21T01:11:31;29.60;;;17.40;;
56477;SDS011;42382;53.210;5.772;2022-11-21T01:13:57;29.85;;;17.05;;
56477;SDS011;42382;53.210;5.772;2022-11-21T01:16:24;30.75;;;18.17;;
56477;SDS011;42382;53.210;5.772;2022-11-21T01:18:51;27.17;;;16.55;;
56477;SDS011;42382;53.210;5.772;2022-11-21T01:21:18;29.67;;;17.50;;
56477;SDS011;42382;53.210;5.772;2022-11-21T01:23:51;30.88;;;17.75;;
56477;SDS011;42382;53.210;5.772;2022-11-21T01:26:19;30.80;;;18.00;;
56477;SDS011;42382;53.210;5.772;2022-11-21T01:28:46;31.05;;;18.35;;
56477;SDS011;42382;53.210;5.772;2022-11-21T01:31:14;26.95;;;17.67;;
56477;SDS011;42382;53.210;5.772;2022-11-21T01:33:40;31.50;;;18.10;;
56477;SDS011;42382;53.210;5.772;2022-11-21T01:38:32;29.02;;;17.35;;
56477;SDS011;42382;53.210;5.772;2022-11-21T01:40:58;28.17;;;16.95;;
56477;SDS011;42382;53.210;5.772;2022-11-21T01:43:23;28.35;;;17.30;;
56477;SDS011;42382;53.210;5.772;2022-11-21T01:45:50;28.20;;;16.90;;
56477;SDS011;42382;53.210;5.772;2022-11-21T01:48:21;30.17;;;18.65;;
56477;SDS011;42382;53.210;5.772;2022-11-21T01:50:52;34.63;;;18.98;;
56477;SDS011;42382;53.210;5.772;2022-11-21T01:53:20;30.98;;;17.98;;
56477;SDS011;42382;53.210;5.772;2022-11-21T01:55:46;32.17;;;17.52;;
56477;SDS011;42382;53.210;5.772;2022-11-21T01:58:12;30.92;;;17.50;;
56477;SDS011;42382;53.210;5.772;2022-11-21T02:00:38;29.95;;;17.92;;
56477;SDS011;42382;53.210;5.772;2022-11-21T02:03:08;31.00;;;17.80;;
56477;SDS011;42382;53.210;5.772;2022-11-21T02:05:38;32.42;;;18.83;;
56477;SDS011;42382;53.210;5.772;2022-11-21T02:08:05;31.70;;;19.52;;
56477;SDS011;42382;53.210;5.772;2022-11-21T02:10:33;30.25;;;17.05;;
56477;SDS011;42382;53.210;5.772;2022-11-21T02:13:02;34.50;;;18.75;;
56477;SDS011;42382;53.210;5.772;2022-11-21T02:15:28;30.13;;;17.65;;
56477;SDS011;42382;53.210;5.772;2022-11-21T02:17:54;30.38;;;17.27;;
56477;SDS011;42382;53.210;5.772;2022-11-21T02:20:23;31.95;;;18.88;;
56477;SDS011;42382;53.210;5.772;2022-11-21T02:25:25;34.08;;;19.30;;
56477;SDS011;42382;53.210;5.772;2022-11-21T02:27:57;32.83;;;18.98;;
56477;SDS011;42382;53.210;5.772;2022-11-21T02:30:30;33.58;;;19.88;;
56477;SDS011;42382;53.210;5.772;2022-11-21T02:32:56;33.08;;;18.23;;
56477;SDS011;42382;53.210;5.772;2022-11-21T02:35:22;35.05;;;19.67;;
56477;SDS011;42382;53.210;5.772;2022-11-21T02:37:50;34.20;;;19.35;;
56477;SDS011;42382;53.210;5.772;2022-11-21T02:40:27;32.20;;;17.38;;
56477;SDS011;42382;53.210;5.772;2022-11-21T02:42:58;31.20;;;17.75;;
56477;SDS011;42382;53.210;5.772;2022-11-21T02:45:33;32.85;;;19.90;;
56477;SDS011;42382;53.210;5.772;2022-11-21T02:48:04;33.03;;;19.15;;
56477;SDS011;42382;53.210;5.772;2022-11-21T02:50:31;34.20;;;18.98;;
56477;SDS011;42382;53.210;5.772;2022-11-21T02:52:59;31.63;;;18.65;;
56477;SDS011;42382;53.210;5.772;2022-11-21T02:55:25;34.60;;;18.98;;
56477;SDS011;42382;53.210;5.772;2022-11-21T02:57:51;33.03;;;18.85;;
56477;SDS011;42382;53.210;5.772;2022-11-21T03:00:17;34.47;;;19.00;;
56477;SDS011;42382;53.210;5.772;2022-11-21T03:02:43;29.52;;;17.98;;
56477;SDS011;42382;53.210;5.772;2022-11-21T03:05:09;29.13;;;18.38;;
56477;SDS011;42382;53.210;5.772;2022-11-21T03:07:36;29.65;;;17.95;;
56477;SDS011;42382;53.210;5.772;2022-11-21T03:10:02;32.58;;;18.55;;
56477;SDS011;42382;53.210;5.772;2022-11-21T03:12:28;32.50;;;18.08;;
56477;SDS011;42382;53.210;5.772;2022-11-21T03:14:54;31.45;;;18.38;;
56477;SDS011;42382;53.210;5.772;2022-11-21T03:17:19;33.38;;;18.77;;
56477;SDS011;42382;53.210;5.772;2022-11-21T03:19:45;30.77;;;18.52;;
56477;SDS011;42382;53.210;5.772;2022-11-21T03:22:11;30.27;;;18.65;;
56477;SDS011;42382;53.210;5.772;2022-11-21T03:24:37;36.53;;;20.15;;
56477;SDS011;42382;53.210;5.772;2022-11-21T03:27:03;30.83;;;18.45;;
56477;SDS011;42382;53.210;5.772;2022-11-21T03:29:28;35.22;;;19.20;;
56477;SDS011;42382;53.210;5.772;2022-11-21T03:31:54;37.72;;;21.10;;
56477;SDS011;42382;53.210;5.772;2022-11-21T03:34:20;32.28;;;19.02;;
56477;SDS011;42382;53.210;5.772;2022-11-21T03:36:45;35.47;;;20.02;;
56477;SDS011;42382;53.210;5.772;2022-11-21T03:39:11;33.97;;;19.60;;
56477;SDS011;42382;53.210;5.772;2022-11-21T03:41:36;32.90;;;20.20;;
56477;SDS011;42382;53.210;5.772;2022-11-21T03:44:06;33.08;;;19.80;;
56477;SDS011;42382;53.210;5.772;2022-11-21T03:46:34;36.53;;;20.17;;
56477;SDS011;42382;53.210;5.772;2022-11-21T03:49:01;35.58;;;19.90;;
56477;SDS011;42382;53.210;5.772;2022-11-21T03:51:27;41.42;;;21.48;;
56477;SDS011;42382;53.210;5.772;2022-11-21T03:53:56;35.90;;;20.25;;
56477;SDS011;42382;53.210;5.772;2022-11-21T03:56:22;34.28;;;20.45;;
56477;SDS011;42382;53.210;5.772;2022-11-21T03:58:48;32.90;;;19.27;;
56477;SDS011;42382;53.210;5.772;2022-11-21T04:01:14;34.92;;;19.70;;
56477;SDS011;42382;53.210;5.772;2022-11-21T04:03:40;36.03;;;20.85;;
56477;SDS011;42382;53.210;5.772;2022-11-21T04:06:07;36.28;;;20.02;;
56477;SDS011;42382;53.210;5.772;2022-11-21T04:08:33;34.83;;;19.98;;
56477;SDS011;42382;53.210;5.772;2022-11-21T04:10:59;34.22;;;19.40;;
56477;SDS011;42382;53.210;5.772;2022-11-21T04:13:24;36.25;;;20.75;;
56477;SDS011;42382;53.210;5.772;2022-11-21T04:15:50;39.13;;;20.23;;
56477;SDS011;42382;53.210;5.772;2022-11-21T04:18:16;36.20;;;20.27;;
56477;SDS011;42382;53.210;5.772;2022-11-21T04:20:42;38.75;;;21.17;;
56477;SDS011;42382;53.210;5.772;2022-11-21T04:23:08;32.45;;;19.73;;
56477;SDS011;42382;53.210;5.772;2022-11-21T04:25:33;33.97;;;18.73;;
56477;SDS011;42382;53.210;5.772;2022-11-21T04:28:00;39.13;;;21.00;;
56477;SDS011;42382;53.210;5.772;2022-11-21T04:30:27;36.15;;;20.23;;
56477;SDS011;42382;53.210;5.772;2022-11-21T04:32:53;33.70;;;18.90;;
56477;SDS011;42382;53.210;5.772;2022-11-21T04:35:20;37.67;;;20.33;;
56477;SDS011;42382;53.210;5.772;2022-11-21T04:37:46;35.90;;;19.58;;
56477;SDS011;42382;53.210;5.772;2022-11-21T04:40:12;37.78;;;21.23;;
56477;SDS011;42382;53.210;5.772;2022-11-21T04:42:42;36.00;;;19.50;;
56477;SDS011;42382;53.210;5.772;2022-11-21T04:45:09;36.92;;;20.38;;
56477;SDS011;42382;53.210;5.772;2022-11-21T04:47:35;33.67;;;19.13;;
56477;SDS011;42382;53.210;5.772;2022-11-21T04:50:02;34.75;;;19.70;;
56477;SDS011;42382;53.210;5.772;2022-11-21T04:52:27;34.47;;;19.40;;
56477;SDS011;42382;53.210;5.772;2022-11-21T04:54:53;32.70;;;19.10;;
56477;SDS011;42382;53.210;5.772;2022-11-21T04:57:19;36.47;;;20.15;;
56477;SDS011;42382;53.210;5.772;2022-11-21T04:59:44;37.17;;;20.45;;
56477;SDS011;42382;53.210;5.772;2022-11-21T05:02:10;34.88;;;20.50;;
56477;SDS011;42382;53.210;5.772;2022-11-21T05:04:35;38.28;;;21.00;;
56477;SDS011;42382;53.210;5.772;2022-11-21T05:07:01;37.28;;;20.35;;
56477;SDS011;42382;53.210;5.772;2022-11-21T05:09:26;41.97;;;21.77;;
56477;SDS011;42382;53.210;5.772;2022-11-21T05:11:52;36.13;;;20.27;;
56477;SDS011;42382;53.210;5.772;2022-11-21T05:14:36;37.25;;;20.90;;
56477;SDS011;42382;53.210;5.772;2022-11-21T05:17:01;34.78;;;19.77;;
56477;SDS011;42382;53.210;5.772;2022-11-21T05:19:27;32.92;;;18.65;;
56477;SDS011;42382;53.210;5.772;2022-11-21T05:21:53;37.20;;;20.35;;
56477;SDS011;42382;53.210;5.772;2022-11-21T05:24:18;37.80;;;21.20;;
56477;SDS011;42382;53.210;5.772;2022-11-21T05:26:44;35.58;;;19.85;;
56477;SDS011;42382;53.210;5.772;2022-11-21T05:29:09;40.20;;;22.35;;
56477;SDS011;42382;53.210;5.772;2022-11-21T05:31:35;40.05;;;22.13;;
56477;SDS011;42382;53.210;5.772;2022-11-21T05:34:00;40.00;;;22.08;;
56477;SDS011;42382;53.210;5.772;2022-11-21T05:36:26;39.13;;;21.77;;
56477;SDS011;42382;53.210;5.772;2022-11-21T05:38:51;41.33;;;22.85;;
56477;SDS011;42382;53.210;5.772;2022-11-21T05:41:17;38.72;;;22.00;;
56477;SDS011;42382;53.210;5.772;2022-11-21T05:43:42;38.50;;;21.63;;
56477;SDS011;42382;53.210;5.772;2022-11-21T05:46:15;43.70;;;21.92;;
56477;SDS011;42382;53.210;5.772;2022-11-21T05:48:45;36.83;;;21.17;;
56477;SDS011;42382;53.210;5.772;2022-11-21T05:51:11;39.13;;;20.98;;
56477;SDS011;42382;53.210;5.772;2022-11-21T05:53:37;39.20;;;21.15;;
56477;SDS011;42382;53.210;5.772;2022-11-21T05:56:03;39.22;;;20.23;;
56477;SDS011;42382;53.210;5.772;2022-11-21T05:58:31;37.53;;;21.17;;
56477;SDS011;42382;53.210;5.772;2022-11-21T06:00:57;41.10;;;22.60;;
56477;SDS011;42382;53.210;5.772;2022-11-21T06:03:23;37.50;;;20.95;;
56477;SDS011;42382;53.210;5.772;2022-11-21T06:06:04;40.40;;;22.45;;
56477;SDS011;42382;53.210;5.772;2022-11-21T06:08:32;43.53;;;22.73;;
56477;SDS011;42382;53.210;5.772;2022-11-21T06:10:59;44.38;;;23.92;;
56477;SDS011;42382;53.210;5.772;2022-11-21T06:13:26;42.92;;;23.80;;
56477;SDS011;42382;53.210;5.772;2022-11-21T06:15:53;42.03;;;22.77;;
56477;SDS011;42382;53.210;5.772;2022-11-21T06:18:23;44.03;;;23.60;;
56477;SDS011;42382;53.210;5.772;2022-11-21T06:20:49;39.90;;;22.02;;
56477;SDS011;42382;53.210;5.772;2022-11-21T06:23:15;41.30;;;22.33;;
56477;SDS011;42382;53.210;5.772;2022-11-21T06:25:41;39.35;;;22.23;;
56477;SDS011;42382;53.210;5.772;2022-11-21T06:28:08;45.58;;;24.08;;
56477;SDS011;42382;53.210;5.772;2022-11-21T06:30:34;43.25;;;24.45;;
56477;SDS011;42382;53.210;5.772;2022-11-21T06:33:01;44.63;;;23.88;;
56477;SDS011;42382;53.210;5.772;2022-11-21T06:35:30;42.53;;;22.10;;
56477;SDS011;42382;53.210;5.772;2022-11-21T06:37:56;45.22;;;23.52;;
56477;SDS011;42382;53.210;5.772;2022-11-21T06:40:24;53.03;;;24.45;;
56477;SDS011;42382;53.210;5.772;2022-11-21T06:42:50;104.22;;;26.98;;
56477;SDS011;42382;53.210;5.772;2022-11-21T06:45:15;64.95;;;25.42;;
56477;SDS011;42382;53.210;5.772;2022-11-21T06:47:41;72.20;;;25.20;;
56477;SDS011;42382;53.210;5.772;2022-11-21T06:50:07;71.13;;;25.10;;
56477;SDS011;42382;53.210;5.772;2022-11-21T06:52:33;216.13;;;30.67;;
56477;SDS011;42382;53.210;5.772;2022-11-21T06:54:59;120.38;;;26.90;;
56477;SDS011;42382;53.210;5.772;2022-11-21T06:57:25;104.45;;;26.25;;
56477;SDS011;42382;53.210;5.772;2022-11-21T06:59:50;80.30;;;25.55;;
56477;SDS011;42382;53.210;5.772;2022-11-21T07:02:16;61.53;;;26.30;;
56477;SDS011;42382;53.210;5.772;2022-11-21T07:04:42;74.93;;;27.60;;
56477;SDS011;42382;53.210;5.772;2022-11-21T07:07:07;117.18;;;27.90;;
56477;SDS011;42382;53.210;5.772;2022-11-21T07:09:33;67.45;;;29.65;;
56477;SDS011;42382;53.210;5.772;2022-11-21T07:12:00;68.47;;;28.13;;
56477;SDS011;42382;53.210;5.772;2022-11-21T07:14:44;78.80;;;27.08;;
56477;SDS011;42382;53.210;5.772;2022-11-21T07:17:10;75.95;;;27.70;;
56477;SDS011;42382;53.210;5.772;2022-11-21T07:19:37;77.18;;;26.63;;
56477;SDS011;42382;53.210;5.772;2022-11-21T07:22:02;70.38;;;26.92;;
56477;SDS011;42382;53.210;5.772;2022-11-21T07:24:28;69.22;;;26.20;;
56477;SDS011;42382;53.210;5.772;2022-11-21T07:26:53;63.30;;;27.67;;
56477;SDS011;42382;53.210;5.772;2022-11-21T07:29:19;82.43;;;26.58;;
56477;SDS011;42382;53.210;5.772;2022-11-21T07:31:45;77.32;;;27.80;;
56477;SDS011;42382;53.210;5.772;2022-11-21T07:34:10;129.27;;;28.17;;
56477;SDS011;42382;53.210;5.772;2022-11-21T07:36:36;71.40;;;27.77;;
56477;SDS011;42382;53.210;5.772;2022-11-21T07:39:02;52.53;;;26.27;;
56477;SDS011;42382;53.210;5.772;2022-11-21T07:41:28;69.72;;;28.45;;
56477;SDS011;42382;53.210;5.772;2022-11-21T07:43:54;77.55;;;28.52;;
56477;SDS011;42382;53.210;5.772;2022-11-21T07:46:19;63.17;;;27.25;;
56477;SDS011;42382;53.210;5.772;2022-11-21T07:48:45;66.95;;;28.90;;
56477;SDS011;42382;53.210;5.772;2022-11-21T07:51:10;64.63;;;28.73;;
56477;SDS011;42382;53.210;5.772;2022-11-21T07:53:36;62.30;;;28.08;;
56477;SDS011;42382;53.210;5.772;2022-11-21T07:56:02;57.00;;;28.15;;
56477;SDS011;42382;53.210;5.772;2022-11-21T07:58:28;67.53;;;30.02;;
56477;SDS011;42382;53.210;5.772;2022-11-21T08:00:54;66.32;;;28.60;;
56477;SDS011;42382;53.210;5.772;2022-11-21T08:03:20;62.40;;;27.73;;
56477;SDS011;42382;53.210;5.772;2022-11-21T08:05:46;60.60;;;27.40;;
56477;SDS011;42382;53.210;5.772;2022-11-21T08:08:12;60.72;;;26.77;;
56477;SDS011;42382;53.210;5.772;2022-11-21T08:10:42;64.28;;;27.42;;
56477;SDS011;42382;53.210;5.772;2022-11-21T08:13:09;58.58;;;26.45;;
56477;SDS011;42382;53.210;5.772;2022-11-21T08:15:35;59.20;;;26.60;;
56477;SDS011;42382;53.210;5.772;2022-11-21T08:20:34;60.30;;;25.00;;
56477;SDS011;42382;53.210;5.772;2022-11-21T08:23:00;78.93;;;24.95;;
56477;SDS011;42382;53.210;5.772;2022-11-21T08:25:25;135.60;;;26.17;;
56477;SDS011;42382;53.210;5.772;2022-11-21T08:27:54;61.15;;;24.83;;
56477;SDS011;42382;53.210;5.772;2022-11-21T08:30:20;94.93;;;25.50;;
56477;SDS011;42382;53.210;5.772;2022-11-21T08:32:46;152.55;;;26.95;;
56477;SDS011;42382;53.210;5.772;2022-11-21T08:35:11;72.13;;;23.90;;
56477;SDS011;42382;53.210;5.772;2022-11-21T08:37:39;74.32;;;25.98;;
56477;SDS011;42382;53.210;5.772;2022-11-21T08:40:05;52.67;;;23.08;;
56477;SDS011;42382;53.210;5.772;2022-11-21T08:42:31;51.05;;;23.50;;
56477;SDS011;42382;53.210;5.772;2022-11-21T08:44:57;52.05;;;23.38;;
56477;SDS011;42382;53.210;5.772;2022-11-21T08:47:22;41.58;;;20.92;;
56477;SDS011;42382;53.210;5.772;2022-11-21T08:49:48;49.15;;;22.80;;
56477;SDS011;42382;53.210;5.772;2022-11-21T08:52:14;58.50;;;23.30;;
56477;SDS011;42382;53.210;5.772;2022-11-21T08:54:41;54.60;;;23.70;;
56477;SDS011;42382;53.210;5.772;2022-11-21T08:57:08;51.85;;;22.90;;
56477;SDS011;42382;53.210;5.772;2022-11-21T08:59:34;64.97;;;25.13;;
56477;SDS011;42382;53.210;5.772;2022-11-21T09:01:59;53.65;;;23.52;;
56477;SDS011;42382;53.210;5.772;2022-11-21T09:04:25;51.25;;;22.30;;
56477;SDS011;42382;53.210;5.772;2022-11-21T09:06:51;43.40;;;21.58;;
56477;SDS011;42382;53.210;5.772;2022-11-21T09:09:16;39.50;;;21.10;;
56477;SDS011;42382;53.210;5.772;2022-11-21T09:11:42;41.30;;;19.95;;
56477;SDS011;42382;53.210;5.772;2022-11-21T09:14:07;48.97;;;21.70;;
56477;SDS011;42382;53.210;5.772;2022-11-21T09:16:51;41.83;;;20.52;;
56477;SDS011;42382;53.210;5.772;2022-11-21T09:19:36;46.67;;;21.80;;
56477;SDS011;42382;53.210;5.772;2022-11-21T09:22:01;47.10;;;21.10;;
56477;SDS011;42382;53.210;5.772;2022-11-21T09:24:27;39.63;;;20.23;;
56477;SDS011;42382;53.210;5.772;2022-11-21T09:26:52;46.70;;;23.17;;
56477;SDS011;42382;53.210;5.772;2022-11-21T09:29:18;43.63;;;22.20;;
56477;SDS011;42382;53.210;5.772;2022-11-21T09:31:43;37.30;;;20.33;;
56477;SDS011;42382;53.210;5.772;2022-11-21T09:34:09;36.60;;;18.73;;
56477;SDS011;42382;53.210;5.772;2022-11-21T09:36:35;30.33;;;16.80;;
56477;SDS011;42382;53.210;5.772;2022-11-21T09:39:01;26.42;;;15.43;;
56477;SDS011;42382;53.210;5.772;2022-11-21T09:42:14;26.35;;;15.50;;
56477;SDS011;42382;53.210;5.772;2022-11-21T09:49:48;28.65;;;14.45;;
56477;SDS011;42382;53.210;5.772;2022-11-21T09:52:21;26.92;;;14.77;;
56477;SDS011;42382;53.210;5.772;2022-11-21T09:54:54;24.17;;;14.43;;
56477;SDS011;42382;53.210;5.772;2022-11-21T09:57:25;27.08;;;15.73;;
56477;SDS011;42382;53.210;5.772;2022-11-21T09:59:51;29.25;;;16.73;;
56477;SDS011;42382;53.210;5.772;2022-11-21T10:02:17;27.05;;;15.95;;
56477;SDS011;42382;53.210;5.772;2022-11-21T10:04:45;27.15;;;14.98;;
56477;SDS011;42382;53.210;5.772;2022-11-21T10:07:13;26.00;;;14.98;;
56477;SDS011;42382;53.210;5.772;2022-11-21T10:19:02;24.45;;;13.68;;
56477;SDS011;42382;53.210;5.772;2022-11-21T10:27:10;23.13;;;14.15;;
56477;SDS011;42382;53.210;5.772;2022-11-21T10:29:54;23.70;;;13.43;;
56477;SDS011;42382;53.210;5.772;2022-11-21T10:32:27;24.15;;;14.25;;
56477;SDS011;42382;53.210;5.772;2022-11-21T10:35:06;24.17;;;14.32;;
56477;SDS011;42382;53.210;5.772;2022-11-21T10:38:08;22.25;;;13.10;;
56477;SDS011;42382;53.210;5.772;2022-11-21T10:40:43;23.92;;;13.70;;
56477;SDS011;42382;53.210;5.772;2022-11-21T10:46:31;21.00;;;12.90;;
56477;SDS011;42382;53.210;5.772;2022-11-21T10:49:03;21.63;;;12.80;;
56477;SDS011;42382;53.210;5.772;2022-11-21T10:54:07;21.98;;;13.32;;
56477;SDS011;42382;53.210;5.772;2022-11-21T10:56:54;20.52;;;12.82;;
56477;SDS011;42382;53.210;5.772;2022-11-21T10:59:24;19.98;;;12.75;;
56477;SDS011;42382;53.210;5.772;2022-11-21T11:01:56;19.95;;;12.60;;
56477;SDS011;42382;53.210;5.772;2022-11-21T11:04:27;21.77;;;12.20;;
56477;SDS011;42382;53.210;5.772;2022-11-21T11:06:54;18.92;;;11.93;;
56477;SDS011;42382;53.210;5.772;2022-11-21T11:09:21;18.52;;;11.88;;
56477;SDS011;42382;53.210;5.772;2022-11-21T11:11:46;18.85;;;11.90;;
56477;SDS011;42382;53.210;5.772;2022-11-21T11:14:13;16.55;;;11.43;;
56477;SDS011;42382;53.210;5.772;2022-11-21T11:16:44;17.10;;;10.65;;
56477;SDS011;42382;53.210;5.772;2022-11-21T11:24:26;17.77;;;10.80;;
56477;SDS011;42382;53.210;5.772;2022-11-21T11:29:27;17.90;;;10.55;;
56477;SDS011;42382;53.210;5.772;2022-11-21T11:34:28;20.80;;;12.50;;
56477;SDS011;42382;53.210;5.772;2022-11-21T11:37:11;18.40;;;11.90;;
56477;SDS011;42382;53.210;5.772;2022-11-21T11:40:06;18.00;;;11.55;;
56477;SDS011;42382;53.210;5.772;2022-11-21T11:48:45;16.83;;;10.32;;
56477;SDS011;42382;53.210;5.772;2022-11-21T11:51:19;16.55;;;10.32;;
56477;SDS011;42382;53.210;5.772;2022-11-21T11:53:49;13.40;;;9.30;;
56477;SDS011;42382;53.210;5.772;2022-11-21T11:58:44;14.93;;;9.45;;
56477;SDS011;42382;53.210;5.772;2022-11-21T12:04:19;14.23;;;9.65;;
56477;SDS011;42382;53.210;5.772;2022-11-21T12:06:48;14.38;;;9.35;;
56477;SDS011;42382;53.210;5.772;2022-11-21T12:12:08;13.65;;;9.27;;
56477;SDS011;42382;53.210;5.772;2022-11-21T12:14:49;14.63;;;9.45;;
56477;SDS011;42382;53.210;5.772;2022-11-21T12:23:18;14.70;;;9.80;;
56477;SDS011;42382;53.210;5.772;2022-11-21T12:26:02;17.05;;;10.68;;
56477;SDS011;42382;53.210;5.772;2022-11-21T12:34:18;15.85;;;10.65;;
56477;SDS011;42382;53.210;5.772;2022-11-21T12:36:59;18.33;;;11.73;;
56477;SDS011;42382;53.210;5.772;2022-11-21T12:39:39;16.95;;;11.18;;
56477;SDS011;42382;53.210;5.772;2022-11-21T12:42:26;18.58;;;11.30;;
56477;SDS011;42382;53.210;5.772;2022-11-21T12:50:53;18.63;;;12.40;;
56477;SDS011;42382;53.210;5.772;2022-11-21T12:53:44;18.75;;;11.70;;
56477;SDS011;42382;53.210;5.772;2022-11-21T12:59:00;21.20;;;14.18;;
56477;SDS011;42382;53.210;5.772;2022-11-21T13:04:04;20.35;;;13.40;;
56477;SDS011;42382;53.210;5.772;2022-11-21T13:06:32;21.20;;;13.73;;
56477;SDS011;42382;53.210;5.772;2022-11-21T13:08:59;22.70;;;13.45;;
56477;SDS011;42382;53.210;5.772;2022-11-21T13:11:35;23.75;;;14.50;;
56477;SDS011;42382;53.210;5.772;2022-11-21T13:19:36;24.70;;;13.73;;
56477;SDS011;42382;53.210;5.772;2022-11-21T13:22:37;23.83;;;15.10;;
56477;SDS011;42382;53.210;5.772;2022-11-21T13:24:53;22.90;;;13.10;;
56477;SDS011;42382;53.210;5.772;2022-11-21T13:27:36;27.05;;;15.18;;
56477;SDS011;42382;53.210;5.772;2022-11-21T13:32:38;29.05;;;15.98;;
56477;SDS011;42382;53.210;5.772;2022-11-21T13:35:32;28.67;;;16.10;;
56477;SDS011;42382;53.210;5.772;2022-11-21T13:45:46;26.98;;;14.98;;
56477;SDS011;42382;53.210;5.772;2022-11-21T13:51:01;27.55;;;16.55;;
56477;SDS011;42382;53.210;5.772;2022-11-21T13:53:45;25.23;;;15.30;;
56477;SDS011;42382;53.210;5.772;2022-11-21T14:04:25;25.52;;;15.32;;
56477;SDS011;42382;53.210;5.772;2022-11-21T14:06:55;23.65;;;14.88;;
56477;SDS011;42382;53.210;5.772;2022-11-21T14:09:45;23.25;;;14.27;;
56477;SDS011;42382;53.210;5.772;2022-11-21T14:12:21;25.00;;;14.77;;
56477;SDS011;42382;53.210;5.772;2022-11-21T14:17:33;27.75;;;16.42;;
56477;SDS011;42382;53.210;5.772;2022-11-21T14:20:08;27.48;;;14.75;;
56477;SDS011;42382;53.210;5.772;2022-11-21T14:22:44;29.15;;;15.02;;
56477;SDS011;42382;53.210;5.772;2022-11-21T14:25:15;29.17;;;16.30;;
56477;SDS011;42382;53.210;5.772;2022-11-21T14:27:44;27.70;;;15.18;;
56477;SDS011;42382;53.210;5.772;2022-11-21T14:30:26;28.77;;;14.95;;
56477;SDS011;42382;53.210;5.772;2022-11-21T14:32:53;29.67;;;15.95;;
56477;SDS011;42382;53.210;5.772;2022-11-21T14:35:20;32.28;;;16.23;;
56477;SDS011;42382;53.210;5.772;2022-11-21T14:37:46;29.63;;;16.00;;
56477;SDS011;42382;53.210;5.772;2022-11-21T14:40:23;29.58;;;16.83;;
56477;SDS011;42382;53.210;5.772;2022-11-21T14:42:49;31.30;;;15.93;;
56477;SDS011;42382;53.210;5.772;2022-11-21T14:47:50;37.85;;;15.93;;
56477;SDS011;42382;53.210;5.772;2022-11-21T14:50:27;32.45;;;16.42;;
56477;SDS011;42382;53.210;5.772;2022-11-21T14:52:53;33.45;;;15.98;;
56477;SDS011;42382;53.210;5.772;2022-11-21T14:55:24;35.58;;;16.27;;
56477;SDS011;42382;53.210;5.772;2022-11-21T14:57:50;30.88;;;16.42;;
56477;SDS011;42382;53.210;5.772;2022-11-21T15:00:20;30.63;;;14.65;;
56477;SDS011;42382;53.210;5.772;2022-11-21T15:02:49;35.70;;;17.08;;
56477;SDS011;42382;53.210;5.772;2022-11-21T15:05:21;33.97;;;16.63;;
56477;SDS011;42382;53.210;5.772;2022-11-21T15:07:54;35.70;;;16.45;;
56477;SDS011;42382;53.210;5.772;2022-11-21T15:10:22;44.60;;;16.58;;
56477;SDS011;42382;53.210;5.772;2022-11-21T15:12:55;38.13;;;17.23;;
56477;SDS011;42382;53.210;5.772;2022-11-21T15:17:57;40.53;;;18.05;;
56477;SDS011;42382;53.210;5.772;2022-11-21T15:20:24;42.83;;;17.95;;
56477;SDS011;42382;53.210;5.772;2022-11-21T15:22:55;41.00;;;17.42;;
56477;SDS011;42382;53.210;5.772;2022-11-21T15:25:26;37.83;;;17.70;;
56477;SDS011;42382;53.210;5.772;2022-11-21T15:30:27;44.13;;;16.25;;
56477;SDS011;42382;53.210;5.772;2022-11-21T15:33:04;49.65;;;17.77;;
56477;SDS011;42382;53.210;5.772;2022-11-21T15:38:13;48.92;;;18.17;;
56477;SDS011;42382;53.210;5.772;2022-11-21T15:40:40;37.80;;;17.13;;
56477;SDS011;42382;53.210;5.772;2022-11-21T15:43:06;47.63;;;17.10;;
56477;SDS011;42382;53.210;5.772;2022-11-21T15:45:33;44.92;;;17.15;;
56477;SDS011;42382;53.210;5.772;2022-11-21T15:47:59;40.20;;;17.73;;
56477;SDS011;42382;53.210;5.772;2022-11-21T15:50:25;51.03;;;16.88;;
56477;SDS011;42382;53.210;5.772;2022-11-21T15:52:51;58.45;;;17.02;;
56477;SDS011;42382;53.210;5.772;2022-11-21T15:55:17;44.88;;;18.35;;
56477;SDS011;42382;53.210;5.772;2022-11-21T15:57:45;62.40;;;19.83;;
56477;SDS011;42382;53.210;5.772;2022-11-21T16:00:11;52.42;;;19.77;;
56477;SDS011;42382;53.210;5.772;2022-11-21T16:02:37;48.70;;;17.98;;
56477;SDS011;42382;53.210;5.772;2022-11-21T16:05:03;67.45;;;20.38;;
56477;SDS011;42382;53.210;5.772;2022-11-21T16:07:29;58.72;;;17.55;;
56477;SDS011;42382;53.210;5.772;2022-11-21T16:09:54;57.10;;;18.48;;
56477;SDS011;42382;53.210;5.772;2022-11-21T16:12:20;70.35;;;17.73;;
56477;SDS011;42382;53.210;5.772;2022-11-21T16:14:46;50.88;;;19.33;;
56477;SDS011;42382;53.210;5.772;2022-11-21T16:17:11;68.88;;;20.30;;
56477;SDS011;42382;53.210;5.772;2022-11-21T16:19:38;59.25;;;20.80;;
56477;SDS011;42382;53.210;5.772;2022-11-21T16:22:03;69.15;;;23.02;;
56477;SDS011;42382;53.210;5.772;2022-11-21T16:24:29;88.50;;;21.90;;
56477;SDS011;42382;53.210;5.772;2022-11-21T16:26:54;59.50;;;20.08;;
56477;SDS011;42382;53.210;5.772;2022-11-21T16:29:21;77.35;;;22.58;;